createdAt,value
2023-06-03T00:00:33.556Z,10.98
2023-06-03T00:03:01.473Z,10.97
2023-06-03T00:05:29.304Z,10.96
2023-06-03T00:07:58.474Z,10.96
2023-06-03T00:10:26.258Z,10.96
2023-06-03T00:12:54.109Z,10.97
2023-06-03T00:15:21.974Z,10.97
2023-06-03T00:17:49.801Z,10.96
2023-06-03T00:20:17.858Z,10.94
2023-06-03T00:22:46.267Z,10.90
2023-06-03T00:25:15.709Z,10.87
2023-06-03T00:27:44.659Z,10.82
2023-06-03T00:30:13.242Z,10.76
2023-06-03T00:32:41.107Z,10.73
2023-06-03T00:35:09.730Z,10.68
2023-06-03T00:37:37.640Z,10.64
2023-06-03T00:40:07.489Z,10.58
2023-06-03T00:42:36.693Z,10.49
2023-06-03T00:45:04.885Z,10.41
2023-06-03T00:47:32.993Z,10.36
2023-06-03T00:50:00.999Z,10.30
2023-06-03T00:52:29.058Z,10.26
2023-06-03T00:54:56.950Z,10.26
2023-06-03T00:57:25.373Z,10.26
2023-06-03T00:59:54.591Z,10.24
2023-06-03T01:02:24.952Z,10.26
2023-06-03T01:04:56.586Z,10.26
2023-06-03T01:07:32.921Z,10.28
2023-06-03T01:10:11.927Z,10.27
2023-06-03T01:12:49.231Z,10.23
2023-06-03T01:15:21.847Z,10.19
2023-06-03T01:17:52.307Z,10.18
2023-06-03T01:20:27.601Z,10.18
2023-06-03T01:22:59.573Z,10.15
2023-06-03T01:25:30.165Z,10.11
2023-06-03T01:27:58.753Z,10.07
2023-06-03T01:30:26.890Z,10.07
2023-06-03T01:32:55.660Z,10.08
2023-06-03T01:35:24.190Z,10.09
2023-06-03T01:37:53.452Z,10.10
2023-06-03T01:40:21.911Z,10.10
2023-06-03T01:42:51.390Z,10.05
2023-06-03T01:45:19.287Z,9.99
2023-06-03T01:47:47.739Z,9.93
2023-06-03T01:50:17.999Z,9.86
2023-06-03T01:52:46.815Z,9.81
2023-06-03T01:55:14.814Z,9.78
2023-06-03T01:57:43.159Z,9.78
2023-06-03T02:00:13.185Z,9.81
2023-06-03T02:02:43.986Z,9.83
2023-06-03T02:05:12.339Z,9.81
2023-06-03T02:07:40.136Z,9.76
2023-06-03T02:10:09.828Z,9.71
2023-06-03T02:12:37.685Z,9.66
2023-06-03T02:15:16.155Z,9.62
2023-06-03T02:17:45.022Z,9.57
2023-06-03T02:20:13.285Z,9.54
2023-06-03T02:22:41.121Z,9.54
2023-06-03T02:25:09.928Z,9.52
2023-06-03T02:27:39.932Z,9.52
2023-06-03T02:30:13.005Z,9.47
2023-06-03T02:32:42.269Z,9.43
2023-06-03T02:35:10.647Z,9.38
2023-06-03T02:37:38.680Z,9.34
2023-06-03T02:40:10.394Z,9.30
2023-06-03T02:42:38.970Z,9.27
2023-06-03T02:45:08.028Z,9.24
2023-06-03T02:47:36.399Z,9.19
2023-06-03T02:50:06.587Z,9.14
2023-06-03T02:52:35.264Z,9.09
2023-06-03T02:55:04.814Z,9.03
2023-06-03T02:57:32.753Z,8.97
2023-06-03T03:00:00.608Z,8.90
2023-06-03T03:02:28.579Z,8.84
2023-06-03T03:04:56.628Z,8.78
2023-06-03T03:07:28.270Z,8.75
2023-06-03T03:09:56.428Z,8.66
2023-06-03T03:12:25.054Z,8.62
2023-06-03T03:14:53.041Z,8.55
2023-06-03T03:17:21.017Z,8.49
2023-06-03T03:19:49.480Z,8.46
2023-06-03T03:22:17.547Z,8.42
2023-06-03T03:24:51.829Z,8.36
2023-06-03T03:27:21.739Z,8.29
2023-06-03T03:29:53.583Z,8.21
2023-06-03T03:32:21.827Z,8.14
2023-06-03T03:35:09.492Z,8.09
2023-06-03T03:37:37.366Z,8.06
2023-06-03T03:40:15.220Z,8.02
2023-06-03T03:42:43.103Z,8.00
2023-06-03T03:45:18.264Z,7.96
2023-06-03T03:47:46.707Z,7.91
2023-06-03T03:50:30.810Z,7.87
2023-06-03T03:53:02.181Z,7.81
2023-06-03T03:55:32.313Z,7.78
2023-06-03T03:58:04.914Z,7.76
2023-06-03T04:00:34.444Z,7.75
2023-06-03T04:03:02.459Z,7.72
2023-06-03T04:05:30.447Z,7.70
2023-06-03T04:07:58.634Z,7.68
2023-06-03T04:10:26.449Z,7.66
2023-06-03T04:12:56.176Z,7.65
2023-06-03T04:15:31.391Z,7.62
2023-06-03T04:17:59.863Z,7.58
2023-06-03T04:20:42.106Z,7.55
2023-06-03T04:23:16.182Z,7.53
2023-06-03T04:25:44.759Z,7.52
2023-06-03T04:28:16.081Z,7.53
2023-06-03T04:30:45.887Z,7.56
2023-06-03T04:33:14.122Z,7.60
2023-06-03T04:35:42.121Z,7.64
2023-06-03T04:38:10.537Z,7.67
2023-06-03T04:40:39.107Z,7.73
2023-06-03T04:43:09.042Z,7.78
2023-06-03T04:45:39.860Z,7.83
2023-06-03T04:48:08.739Z,7.88
2023-06-03T04:50:38.700Z,7.93
2023-06-03T04:53:09.179Z,7.98
2023-06-03T04:55:37.163Z,8.02
2023-06-03T04:58:07.002Z,8.07
2023-06-03T05:00:35.285Z,8.11
2023-06-03T05:03:13.911Z,8.17
2023-06-03T05:05:44.607Z,8.21
2023-06-03T05:08:14.863Z,8.26
2023-06-03T05:10:43.491Z,8.32
2023-06-03T05:13:11.966Z,8.38
2023-06-03T05:15:41.124Z,8.46
2023-06-03T05:18:09.153Z,8.52
2023-06-03T05:20:38.714Z,8.61
2023-06-03T05:23:06.725Z,8.66
2023-06-03T05:25:35.563Z,8.73
2023-06-03T05:28:05.218Z,8.78
2023-06-03T05:30:36.820Z,8.83
2023-06-03T05:33:06.210Z,8.89
2023-06-03T05:35:35.651Z,8.97
2023-06-03T05:38:04.906Z,9.04
2023-06-03T05:40:32.817Z,9.10
2023-06-03T05:43:00.813Z,9.18
2023-06-03T05:45:29.631Z,9.24
2023-06-03T05:47:57.552Z,9.31
2023-06-03T05:50:25.453Z,9.36
2023-06-03T05:52:56.342Z,9.45
2023-06-03T05:55:26.039Z,9.51
2023-06-03T05:57:54.247Z,9.59
2023-06-03T06:00:22.196Z,9.69
2023-06-03T06:02:54.944Z,9.75
2023-06-03T06:05:23.753Z,9.82
2023-06-03T06:07:51.565Z,9.88
2023-06-03T06:10:19.763Z,9.95
2023-06-03T06:12:49.495Z,10.02
2023-06-03T06:15:17.702Z,10.09
2023-06-03T06:17:46.332Z,10.17
2023-06-03T06:20:15.994Z,10.24
2023-06-03T06:22:44.368Z,10.35
2023-06-03T06:25:12.378Z,10.44
2023-06-03T06:27:41.419Z,10.52
2023-06-03T06:30:11.619Z,10.62
2023-06-03T06:32:49.368Z,10.70
2023-06-03T06:35:19.332Z,10.78
2023-06-03T06:37:50.062Z,10.86
2023-06-03T06:40:21.057Z,10.93
2023-06-03T06:42:49.613Z,11.00
2023-06-03T06:45:33.586Z,11.10
2023-06-03T06:48:06.845Z,11.17
2023-06-03T06:50:48.049Z,11.26
2023-06-03T06:53:19.377Z,11.32
2023-06-03T06:55:51.578Z,11.42
2023-06-03T06:58:27.370Z,11.50
2023-06-03T07:00:58.826Z,11.57
2023-06-03T07:03:26.774Z,11.68
2023-06-03T07:05:55.223Z,11.76
2023-06-03T07:08:26.778Z,11.84
2023-06-03T07:10:58.323Z,11.94
2023-06-03T07:13:27.722Z,12.01
2023-06-03T07:15:57.945Z,12.08
2023-06-03T07:18:28.754Z,12.15
2023-06-03T07:20:58.213Z,12.23
2023-06-03T07:23:28.293Z,12.30
2023-06-03T07:25:57.727Z,12.36
2023-06-03T07:28:31.693Z,12.45
2023-06-03T07:31:08.655Z,12.57
2023-06-03T07:33:42.435Z,12.66
2023-06-03T07:36:10.701Z,12.78
2023-06-03T07:38:58.473Z,12.90
2023-06-03T07:41:39.971Z,13.04
2023-06-03T07:44:13.564Z,13.20
2023-06-03T07:46:44.685Z,13.37
2023-06-03T07:49:14.075Z,13.58
2023-06-03T07:51:43.490Z,13.78
2023-06-03T07:54:12.263Z,14.00
2023-06-03T07:56:40.235Z,14.20
2023-06-03T07:59:11.066Z,14.39
2023-06-03T08:01:39.055Z,14.55
2023-06-03T08:04:25.808Z,14.71
2023-06-03T08:06:54.247Z,14.87
2023-06-03T08:09:27.431Z,15.00
2023-06-03T08:11:55.531Z,15.12
2023-06-03T08:14:24.461Z,15.24
2023-06-03T08:16:53.472Z,15.39
2023-06-03T08:19:22.712Z,15.53
2023-06-03T08:21:52.077Z,15.65
2023-06-03T08:24:20.037Z,15.78
2023-06-03T08:26:47.823Z,15.92
2023-06-03T08:29:15.775Z,16.06
2023-06-03T08:31:43.669Z,16.19
2023-06-03T08:34:11.616Z,16.28
2023-06-03T08:36:41.205Z,16.37
2023-06-03T08:39:09.204Z,16.48
2023-06-03T08:41:39.951Z,16.60
2023-06-03T08:44:15.708Z,16.73
2023-06-03T08:46:49.266Z,16.90
2023-06-03T08:49:24.830Z,17.07
2023-06-03T08:51:57.099Z,17.21
2023-06-03T08:54:30.934Z,17.37
2023-06-03T08:57:04.380Z,17.49
2023-06-03T08:59:34.401Z,17.53
2023-06-03T09:02:06.602Z,17.60
2023-06-03T09:04:35.167Z,17.75
2023-06-03T09:07:06.177Z,17.87
2023-06-03T09:09:35.378Z,17.97
2023-06-03T09:12:05.958Z,18.07
2023-06-03T09:14:34.525Z,18.07
2023-06-03T09:17:02.906Z,18.15
2023-06-03T09:19:32.478Z,18.21
2023-06-03T09:22:00.549Z,18.33
2023-06-03T09:24:29.922Z,18.47
2023-06-03T09:26:57.801Z,18.60
2023-06-03T09:29:25.888Z,18.73
2023-06-03T09:31:54.540Z,18.88
2023-06-03T09:34:23.292Z,18.99
2023-06-03T09:36:51.540Z,19.08
2023-06-03T09:39:35.530Z,19.20
2023-06-03T09:42:03.501Z,19.25
2023-06-03T09:44:42.960Z,19.33
2023-06-03T09:47:12.525Z,19.42
2023-06-03T09:52:13.336Z,19.58
2023-06-03T09:54:42.692Z,19.57
2023-06-03T09:57:13.097Z,19.61
2023-06-03T09:59:43.562Z,19.59
2023-06-03T10:02:15.575Z,19.64
2023-06-03T10:04:45.549Z,19.66
2023-06-03T10:07:15.266Z,19.71
2023-06-03T10:09:46.691Z,19.79
2023-06-03T10:12:15.516Z,19.85
2023-06-03T10:14:46.924Z,19.95
2023-06-03T10:17:17.435Z,20.04
2023-06-03T10:19:46.843Z,20.08
2023-06-03T10:22:19.340Z,20.10
2023-06-03T10:24:50.550Z,20.20
2023-06-03T10:27:20.106Z,20.34
2023-06-03T10:29:48.572Z,20.49
2023-06-03T10:32:17.382Z,20.53
2023-06-03T10:34:48.840Z,20.57
2023-06-03T10:37:16.984Z,20.64
2023-06-03T10:39:45.398Z,20.70
2023-06-03T10:42:15.138Z,20.78
2023-06-03T10:44:43.288Z,20.86
2023-06-03T10:47:17.746Z,20.95
2023-06-03T10:49:49.567Z,21.03
2023-06-03T10:52:34.586Z,21.02
2023-06-03T10:55:12.968Z,21.01
2023-06-03T10:57:47.225Z,21.06
2023-06-03T11:00:53.932Z,21.19
2023-06-03T11:03:22.313Z,21.32
2023-06-03T11:05:50.712Z,21.40
2023-06-03T11:08:51.818Z,21.30
2023-06-03T11:12:00.036Z,21.35
2023-06-03T11:15:00.018Z,21.43
2023-06-03T11:17:28.831Z,21.39
2023-06-03T11:19:59.150Z,21.45
2023-06-03T11:22:41.851Z,21.52
2023-06-03T11:25:10.894Z,21.65
2023-06-03T11:27:38.880Z,21.76
2023-06-03T11:30:08.782Z,21.89
2023-06-03T11:32:38.486Z,21.98
2023-06-03T11:35:29.068Z,22.06
2023-06-03T11:37:57.367Z,22.08
2023-06-03T11:40:25.728Z,22.07
2023-06-03T11:43:10.085Z,22.09
2023-06-03T11:45:39.798Z,22.13
2023-06-03T11:48:10.438Z,22.23
2023-06-03T11:50:50.131Z,22.23
2023-06-03T11:53:34.486Z,22.23
2023-06-03T11:56:04.059Z,22.22
2023-06-03T11:58:32.399Z,22.16
2023-06-03T12:01:09.964Z,22.11
2023-06-03T12:03:38.284Z,22.14
2023-06-03T12:06:06.735Z,22.14
2023-06-03T12:08:46.893Z,22.16
2023-06-03T12:11:27.255Z,22.34
2023-06-03T12:13:55.179Z,22.57
2023-06-03T12:16:32.355Z,22.75
2023-06-03T12:19:01.546Z,22.77
2023-06-03T12:21:29.640Z,22.42
2023-06-03T12:23:58.828Z,22.32
2023-06-03T12:26:27.384Z,22.30
2023-06-03T12:29:06.815Z,22.44
2023-06-03T12:31:36.666Z,22.53
2023-06-03T12:34:05.841Z,22.46
2023-06-03T12:36:50.870Z,22.46
2023-06-03T12:39:20.848Z,22.55
2023-06-03T12:41:53.298Z,22.68
2023-06-03T12:44:21.444Z,22.83
2023-06-03T12:47:02.973Z,23.05
2023-06-03T12:49:32.224Z,23.18
2023-06-03T12:52:20.288Z,23.26
2023-06-03T12:54:51.940Z,23.35
2023-06-03T12:57:21.395Z,23.52
2023-06-03T13:00:12.663Z,23.76
2023-06-03T13:02:43.565Z,23.96
2023-06-03T13:05:12.944Z,23.98
2023-06-03T13:07:42.295Z,23.97
2023-06-03T13:10:11.275Z,23.99
2023-06-03T13:12:40.362Z,23.91
2023-06-03T13:15:09.263Z,24.04
2023-06-03T13:17:37.603Z,24.19
2023-06-03T13:20:09.520Z,24.37
2023-06-03T13:22:38.157Z,24.47
2023-06-03T13:25:06.739Z,24.58
2023-06-03T13:27:35.611Z,24.54
2023-06-03T13:30:03.674Z,24.53
2023-06-03T13:32:31.568Z,24.61
2023-06-03T13:35:00.367Z,24.65
2023-06-03T13:37:29.602Z,24.80
2023-06-03T13:39:57.662Z,24.98
2023-06-03T13:42:25.635Z,24.95
2023-06-03T13:44:53.483Z,24.90
2023-06-03T13:47:21.524Z,24.86
2023-06-03T13:49:49.370Z,24.98
2023-06-03T13:52:17.241Z,25.11
2023-06-03T13:54:46.413Z,25.13
2023-06-03T13:57:14.335Z,24.93
2023-06-03T13:59:42.137Z,24.93
2023-06-03T14:02:12.781Z,24.99
2023-06-03T14:04:40.918Z,25.14
2023-06-03T14:07:09.352Z,25.19
2023-06-03T14:09:37.551Z,25.25
2023-06-03T14:12:08.171Z,25.28
2023-06-03T14:14:35.980Z,25.42
2023-06-03T14:17:03.867Z,25.58
2023-06-03T14:19:34.941Z,25.63
2023-06-03T14:22:02.886Z,25.75
2023-06-03T14:24:30.699Z,25.92
2023-06-03T14:26:58.651Z,25.96
2023-06-03T14:29:27.897Z,26.07
2023-06-03T14:31:55.968Z,26.29
2023-06-03T14:34:23.846Z,26.41
2023-06-03T14:36:51.687Z,26.37
2023-06-03T14:39:19.541Z,26.32
2023-06-03T14:41:47.438Z,26.30
2023-06-03T14:44:17.277Z,26.25
2023-06-03T14:46:46.490Z,26.18
2023-06-03T14:49:14.408Z,26.28
2023-06-03T14:51:42.290Z,26.42
2023-06-03T14:54:10.201Z,26.58
2023-06-03T14:56:38.060Z,26.58
2023-06-03T14:59:05.995Z,26.70
2023-06-03T15:01:34.138Z,26.76
2023-06-03T15:04:03.909Z,26.85
2023-06-03T15:06:31.759Z,26.78
2023-06-03T15:08:59.598Z,26.64
2023-06-03T15:11:27.947Z,26.52
2023-06-03T15:13:55.842Z,26.54
2023-06-03T15:16:23.848Z,26.51
2023-06-03T15:18:51.744Z,26.58
2023-06-03T15:21:20.979Z,26.69
2023-06-03T15:23:48.862Z,26.84
2023-06-03T15:26:16.804Z,26.91
2023-06-03T15:28:44.717Z,27.00
2023-06-03T15:31:12.635Z,26.56
2023-06-03T15:33:40.516Z,26.29
2023-06-03T15:36:08.885Z,26.18
2023-06-03T15:38:38.207Z,26.33
2023-06-03T15:41:06.314Z,26.44
2023-06-03T15:43:34.143Z,26.58
2023-06-03T15:46:01.987Z,26.60
2023-06-03T15:48:30.041Z,26.57
2023-06-03T15:50:58.538Z,26.46
2023-06-03T15:53:27.526Z,26.52
2023-06-03T15:55:57.329Z,26.50
2023-06-03T15:58:25.193Z,26.55
2023-06-03T16:00:53.089Z,26.56
2023-06-03T16:03:21.051Z,26.54
2023-06-03T16:05:49.112Z,26.52
2023-06-03T16:08:17.026Z,26.46
2023-06-03T16:10:45.045Z,26.34
2023-06-03T16:13:14.364Z,26.32
2023-06-03T16:15:42.233Z,26.42
2023-06-03T16:18:10.124Z,26.50
2023-06-03T16:20:38.192Z,26.49
2023-06-03T16:23:06.669Z,26.41
2023-06-03T16:25:34.540Z,26.35
2023-06-03T16:28:02.394Z,26.30
2023-06-03T16:30:31.584Z,26.20
2023-06-03T16:32:59.508Z,26.03
2023-06-03T16:35:27.352Z,25.88
2023-06-03T16:37:55.157Z,25.74
2023-06-03T16:40:23.114Z,25.63
2023-06-03T16:42:50.937Z,25.50
2023-06-03T16:45:18.837Z,25.37
2023-06-03T16:47:48.299Z,25.09
2023-06-03T16:50:16.700Z,24.88
2023-06-03T16:52:44.499Z,24.75
2023-06-03T16:55:12.396Z,24.52
2023-06-03T16:57:40.532Z,24.26
2023-06-03T17:00:09.843Z,24.02
2023-06-03T17:02:37.702Z,23.83
2023-06-03T17:05:07.891Z,23.65
2023-06-03T17:07:35.821Z,23.48
2023-06-03T17:10:03.730Z,23.35
2023-06-03T17:12:31.826Z,23.17
2023-06-03T17:14:59.720Z,22.97
2023-06-03T17:17:28.009Z,22.76
2023-06-03T17:19:55.918Z,22.53
2023-06-03T17:22:25.170Z,22.30
2023-06-03T17:24:53.009Z,22.13
2023-06-03T17:27:20.817Z,21.99
2023-06-03T17:29:48.633Z,21.83
2023-06-03T17:32:16.481Z,21.66
2023-06-03T17:34:44.403Z,21.47
2023-06-03T17:37:12.334Z,21.28
2023-06-03T17:39:41.523Z,21.15
2023-06-03T17:42:09.631Z,20.99
2023-06-03T17:44:37.423Z,20.84
2023-06-03T17:47:05.772Z,20.70
2023-06-03T17:49:33.810Z,20.55
2023-06-03T17:52:01.822Z,20.39
2023-06-03T17:54:29.708Z,20.28
2023-06-03T17:56:58.897Z,20.21
2023-06-03T17:59:26.800Z,20.11
2023-06-03T18:01:54.781Z,20.03
2023-06-03T18:04:22.769Z,19.95
2023-06-03T18:06:50.740Z,19.86
2023-06-03T18:09:18.594Z,19.77
2023-06-03T18:11:46.445Z,19.67
2023-06-03T18:14:15.869Z,19.59
2023-06-03T18:16:43.772Z,19.50
2023-06-03T18:19:11.852Z,19.43
2023-06-03T18:21:43.275Z,19.33
2023-06-03T18:24:11.146Z,19.24
2023-06-03T18:26:38.991Z,19.15
2023-06-03T18:29:08.755Z,19.06
2023-06-03T18:31:41.325Z,18.96
2023-06-03T18:34:09.330Z,18.89
2023-06-03T18:36:37.110Z,18.77
2023-06-03T18:39:05.118Z,18.71
2023-06-03T18:41:33.029Z,18.64
2023-06-03T18:44:00.870Z,18.56
2023-06-03T18:46:28.907Z,18.48
2023-06-03T18:48:58.187Z,18.42
2023-06-03T18:51:26.055Z,18.38
2023-06-03T18:53:54.009Z,18.34
2023-06-03T18:56:21.832Z,18.29
2023-06-03T18:58:50.523Z,18.22
2023-06-03T19:01:18.621Z,18.12
2023-06-03T19:03:46.774Z,18.04
2023-06-03T19:06:16.365Z,17.95
2023-06-03T19:08:44.191Z,17.86
2023-06-03T19:11:11.994Z,17.76
2023-06-03T19:13:39.851Z,17.68
2023-06-03T19:16:08.068Z,17.60
2023-06-03T19:18:36.508Z,17.53
2023-06-03T19:21:05.017Z,17.44
2023-06-03T19:23:34.597Z,17.31
2023-06-03T19:26:02.458Z,17.20
2023-06-03T19:28:30.244Z,17.08
2023-06-03T19:30:58.142Z,16.95
2023-06-03T19:33:26.060Z,16.90
2023-06-03T19:35:53.911Z,16.81
2023-06-03T19:38:21.759Z,16.74
2023-06-03T19:40:50.980Z,16.65
2023-06-03T19:43:18.770Z,16.51
2023-06-03T19:45:46.625Z,16.42
2023-06-03T19:48:14.517Z,16.34
2023-06-03T19:50:42.400Z,16.27
2023-06-03T19:53:10.252Z,16.20
2023-06-03T19:55:38.148Z,16.13
2023-06-03T19:58:07.332Z,16.06
2023-06-03T20:00:35.408Z,15.97
2023-06-03T20:03:03.973Z,15.91
2023-06-03T20:05:31.964Z,15.83
2023-06-03T20:07:59.818Z,15.74
2023-06-03T20:10:27.650Z,15.67
2023-06-03T20:12:55.540Z,15.61
2023-06-03T20:15:24.702Z,15.51
2023-06-03T20:17:52.800Z,15.41
2023-06-03T20:20:21.035Z,15.33
2023-06-03T20:22:48.930Z,15.26
2023-06-03T20:25:16.881Z,15.17
2023-06-03T20:27:44.813Z,15.11
2023-06-03T20:30:12.994Z,15.07
2023-06-03T20:32:42.309Z,14.99
2023-06-03T20:35:10.474Z,14.91
2023-06-03T20:37:38.278Z,14.81
2023-06-03T20:40:07.904Z,14.69
2023-06-03T20:42:35.754Z,14.57
2023-06-03T20:45:05.337Z,14.49
2023-06-03T20:47:33.243Z,14.43
2023-06-03T20:50:02.515Z,14.40
2023-06-03T20:52:30.420Z,14.38
2023-06-03T20:54:58.286Z,14.38
2023-06-03T20:57:26.947Z,14.36
2023-06-03T20:59:54.771Z,14.30
2023-06-03T21:02:22.664Z,14.23
2023-06-03T21:04:50.776Z,14.18
2023-06-03T21:07:20.055Z,14.14
2023-06-03T21:09:47.879Z,14.11
2023-06-03T21:12:15.951Z,14.10
2023-06-03T21:14:43.786Z,14.09
2023-06-03T21:17:11.585Z,14.08
2023-06-03T21:19:39.435Z,14.04
2023-06-03T21:22:07.792Z,13.98
2023-06-03T21:24:36.992Z,13.96
2023-06-03T21:27:05.004Z,13.92
2023-06-03T21:29:32.791Z,13.83
2023-06-03T21:32:00.657Z,13.76
2023-06-03T21:34:28.998Z,13.71
2023-06-03T21:36:57.423Z,13.65
2023-06-03T21:39:25.315Z,13.55
2023-06-03T21:41:54.507Z,13.43
2023-06-03T21:44:22.421Z,13.31
2023-06-03T21:46:50.349Z,13.18
2023-06-03T21:49:18.310Z,13.12
2023-06-03T21:51:46.101Z,13.03
2023-06-03T21:54:14.060Z,12.96
2023-06-03T21:56:41.897Z,12.90
2023-06-03T21:59:11.137Z,12.80
2023-06-03T22:01:39.052Z,12.69
2023-06-03T22:06:36.279Z,12.48
2023-06-03T22:09:04.976Z,12.37
2023-06-03T22:11:32.774Z,12.30
2023-06-03T22:14:00.838Z,12.23
2023-06-03T22:16:28.844Z,12.15
2023-06-03T22:18:56.862Z,12.09
2023-06-03T22:21:24.678Z,12.03
2023-06-03T22:23:53.938Z,11.97
2023-06-03T22:26:22.349Z,11.91
2023-06-03T22:28:50.355Z,11.86
2023-06-03T22:31:18.408Z,11.80
2023-06-03T22:33:46.241Z,11.77
2023-06-03T22:36:14.106Z,11.73
2023-06-03T22:38:42.600Z,11.70
2023-06-03T22:41:11.948Z,11.65
2023-06-03T22:43:39.868Z,11.65
2023-06-03T22:46:07.850Z,11.63
2023-06-03T22:48:35.808Z,11.62
2023-06-03T22:51:06.875Z,11.62
2023-06-03T22:53:35.243Z,11.60
2023-06-03T22:56:03.097Z,11.56
2023-06-03T22:58:32.295Z,11.48
2023-06-03T23:01:00.129Z,11.40
2023-06-03T23:03:28.082Z,11.29
2023-06-03T23:05:55.936Z,11.22
2023-06-03T23:08:23.740Z,11.15
2023-06-03T23:10:51.606Z,11.09
2023-06-03T23:13:19.592Z,11.03
2023-06-03T23:15:48.824Z,10.96
2023-06-03T23:18:16.588Z,10.91
2023-06-03T23:20:44.405Z,10.86
2023-06-03T23:23:12.256Z,10.81
2023-06-03T23:25:40.632Z,10.77
2023-06-03T23:28:08.421Z,10.72
2023-06-03T23:30:36.934Z,10.67
2023-06-03T23:33:06.911Z,10.61
2023-06-03T23:35:35.157Z,10.56
2023-06-03T23:38:03.285Z,10.50
2023-06-03T23:40:31.151Z,10.44
2023-06-03T23:42:59.030Z,10.38
2023-06-03T23:45:27.318Z,10.33
2023-06-03T23:47:55.346Z,10.28
2023-06-03T23:50:24.565Z,10.23
2023-06-03T23:52:52.382Z,10.14
2023-06-03T23:55:20.195Z,10.11
2023-06-03T23:57:48.015Z,10.05
